sensor_id;sensor_type;location;lat;lon;timestamp;P1;durP1;ratioP1;P2;durP2;ratioP2
83121;SDS011;73002;47.238;9.006;2024-03-07T00:00:44;2.70;;;2.00;;
83121;SDS011;73002;47.238;9.006;2024-03-07T00:03:10;2.60;;;1.80;;
83121;SDS011;73002;47.238;9.006;2024-03-07T00:05:35;3.50;;;2.13;;
83121;SDS011;73002;47.238;9.006;2024-03-07T00:08:01;4.47;;;2.60;;
83121;SDS011;73002;47.238;9.006;2024-03-07T00:10:29;4.05;;;2.30;;
83121;SDS011;73002;47.238;9.006;2024-03-07T00:12:54;4.20;;;2.53;;
83121;SDS011;73002;47.238;9.006;2024-03-07T00:15:20;4.20;;;2.80;;
83121;SDS011;73002;47.238;9.006;2024-03-07T00:17:46;4.03;;;2.70;;
83121;SDS011;73002;47.238;9.006;2024-03-07T00:20:11;4.28;;;3.00;;
83121;SDS011;73002;47.238;9.006;2024-03-07T00:22:43;11.02;;;6.28;;
83121;SDS011;73002;47.238;9.006;2024-03-07T00:25:09;10.25;;;6.95;;
83121;SDS011;73002;47.238;9.006;2024-03-07T00:30:09;16.77;;;9.20;;
83121;SDS011;73002;47.238;9.006;2024-03-07T00:32:35;23.30;;;10.85;;
83121;SDS011;73002;47.238;9.006;2024-03-07T00:35:06;23.73;;;12.65;;
83121;SDS011;73002;47.238;9.006;2024-03-07T00:37:33;26.17;;;15.50;;
83121;SDS011;73002;47.238;9.006;2024-03-07T00:40:01;21.00;;;11.07;;
83121;SDS011;73002;47.238;9.006;2024-03-07T00:42:26;17.65;;;8.18;;
83121;SDS011;73002;47.238;9.006;2024-03-07T00:44:54;15.13;;;7.47;;
83121;SDS011;73002;47.238;9.006;2024-03-07T00:47:20;10.32;;;5.57;;
83121;SDS011;73002;47.238;9.006;2024-03-07T00:49:45;11.60;;;5.47;;
83121;SDS011;73002;47.238;9.006;2024-03-07T00:52:14;10.38;;;5.85;;
83121;SDS011;73002;47.238;9.006;2024-03-07T00:54:40;13.25;;;6.13;;
83121;SDS011;73002;47.238;9.006;2024-03-07T00:57:05;10.93;;;5.90;;
83121;SDS011;73002;47.238;9.006;2024-03-07T00:59:32;11.95;;;6.43;;
83121;SDS011;73002;47.238;9.006;2024-03-07T01:02:01;10.43;;;5.55;;
83121;SDS011;73002;47.238;9.006;2024-03-07T01:04:27;9.80;;;5.28;;
83121;SDS011;73002;47.238;9.006;2024-03-07T01:06:52;7.73;;;4.43;;
83121;SDS011;73002;47.238;9.006;2024-03-07T01:09:20;6.30;;;3.60;;
83121;SDS011;73002;47.238;9.006;2024-03-07T01:11:47;5.85;;;2.70;;
83121;SDS011;73002;47.238;9.006;2024-03-07T01:24:33;2.85;;;1.95;;
83121;SDS011;73002;47.238;9.006;2024-03-07T01:27:00;2.60;;;1.83;;
83121;SDS011;73002;47.238;9.006;2024-03-07T01:29:25;2.38;;;1.80;;
83121;SDS011;73002;47.238;9.006;2024-03-07T01:31:51;2.30;;;1.85;;
83121;SDS011;73002;47.238;9.006;2024-03-07T01:34:20;2.67;;;1.85;;
83121;SDS011;73002;47.238;9.006;2024-03-07T01:36:45;2.72;;;1.98;;
83121;SDS011;73002;47.238;9.006;2024-03-07T01:39:10;2.55;;;1.88;;
83121;SDS011;73002;47.238;9.006;2024-03-07T01:41:36;3.25;;;2.28;;
83121;SDS011;73002;47.238;9.006;2024-03-07T01:44:01;3.63;;;2.25;;
83121;SDS011;73002;47.238;9.006;2024-03-07T01:46:27;2.60;;;2.00;;
83121;SDS011;73002;47.238;9.006;2024-03-07T01:48:53;2.70;;;2.03;;
83121;SDS011;73002;47.238;9.006;2024-03-07T01:51:19;2.83;;;2.20;;
83121;SDS011;73002;47.238;9.006;2024-03-07T01:53:46;3.15;;;2.40;;
83121;SDS011;73002;47.238;9.006;2024-03-07T01:56:12;3.22;;;2.47;;
83121;SDS011;73002;47.238;9.006;2024-03-07T01:58:37;3.65;;;2.67;;
83121;SDS011;73002;47.238;9.006;2024-03-07T02:01:07;3.55;;;2.75;;
83121;SDS011;73002;47.238;9.006;2024-03-07T02:03:33;4.28;;;2.80;;
83121;SDS011;73002;47.238;9.006;2024-03-07T02:06:08;3.95;;;2.90;;
83121;SDS011;73002;47.238;9.006;2024-03-07T02:08:35;3.58;;;2.63;;
83121;SDS011;73002;47.238;9.006;2024-03-07T02:11:03;3.88;;;2.72;;
83121;SDS011;73002;47.238;9.006;2024-03-07T02:13:30;3.95;;;2.80;;
83121;SDS011;73002;47.238;9.006;2024-03-07T02:15:56;4.20;;;2.90;;
83121;SDS011;73002;47.238;9.006;2024-03-07T02:18:22;3.53;;;2.53;;
83121;SDS011;73002;47.238;9.006;2024-03-07T02:20:47;3.65;;;2.40;;
83121;SDS011;73002;47.238;9.006;2024-03-07T02:23:13;4.63;;;3.00;;
83121;SDS011;73002;47.238;9.006;2024-03-07T02:25:39;3.97;;;2.85;;
83121;SDS011;73002;47.238;9.006;2024-03-07T02:28:07;4.30;;;2.97;;
83121;SDS011;73002;47.238;9.006;2024-03-07T02:30:33;4.82;;;3.20;;
83121;SDS011;73002;47.238;9.006;2024-03-07T02:32:58;4.80;;;3.05;;
83121;SDS011;73002;47.238;9.006;2024-03-07T02:35:28;4.55;;;3.10;;
83121;SDS011;73002;47.238;9.006;2024-03-07T02:37:54;4.20;;;2.90;;
83121;SDS011;73002;47.238;9.006;2024-03-07T02:40:22;3.47;;;2.60;;
83121;SDS011;73002;47.238;9.006;2024-03-07T02:42:51;4.07;;;2.90;;
83121;SDS011;73002;47.238;9.006;2024-03-07T02:45:16;5.38;;;3.58;;
83121;SDS011;73002;47.238;9.006;2024-03-07T02:50:17;3.67;;;2.50;;
83121;SDS011;73002;47.238;9.006;2024-03-07T02:52:42;3.15;;;2.33;;
83121;SDS011;73002;47.238;9.006;2024-03-07T02:55:11;3.92;;;2.50;;
83121;SDS011;73002;47.238;9.006;2024-03-07T02:57:38;4.10;;;2.75;;
83121;SDS011;73002;47.238;9.006;2024-03-07T03:00:04;3.88;;;2.40;;
83121;SDS011;73002;47.238;9.006;2024-03-07T03:05:16;6.75;;;4.20;;
83121;SDS011;73002;47.238;9.006;2024-03-07T03:07:41;11.50;;;5.90;;
83121;SDS011;73002;47.238;9.006;2024-03-07T03:10:07;13.48;;;7.03;;
83121;SDS011;73002;47.238;9.006;2024-03-07T03:20:22;14.90;;;7.85;;
83121;SDS011;73002;47.238;9.006;2024-03-07T03:22:51;14.10;;;7.30;;
83121;SDS011;73002;47.238;9.006;2024-03-07T03:25:18;14.10;;;7.25;;
83121;SDS011;73002;47.238;9.006;2024-03-07T03:27:44;13.25;;;6.85;;
83121;SDS011;73002;47.238;9.006;2024-03-07T03:30:13;15.00;;;7.50;;
83121;SDS011;73002;47.238;9.006;2024-03-07T03:32:40;13.10;;;7.22;;
83121;SDS011;73002;47.238;9.006;2024-03-07T03:40:16;13.90;;;7.53;;
83121;SDS011;73002;47.238;9.006;2024-03-07T03:42:42;9.30;;;5.75;;
83121;SDS011;73002;47.238;9.006;2024-03-07T03:45:09;15.02;;;8.23;;
83121;SDS011;73002;47.238;9.006;2024-03-07T03:47:39;12.98;;;7.03;;
83121;SDS011;73002;47.238;9.006;2024-03-07T03:50:05;6.65;;;4.20;;
83121;SDS011;73002;47.238;9.006;2024-03-07T03:52:32;4.25;;;3.20;;
83121;SDS011;73002;47.238;9.006;2024-03-07T03:54:58;4.00;;;3.08;;
83121;SDS011;73002;47.238;9.006;2024-03-07T03:57:27;4.43;;;3.45;;
83121;SDS011;73002;47.238;9.006;2024-03-07T03:59:55;4.75;;;3.47;;
83121;SDS011;73002;47.238;9.006;2024-03-07T04:02:21;5.13;;;3.40;;
83121;SDS011;73002;47.238;9.006;2024-03-07T04:04:51;4.75;;;3.25;;
83121;SDS011;73002;47.238;9.006;2024-03-07T04:09:52;4.07;;;3.08;;
83121;SDS011;73002;47.238;9.006;2024-03-07T04:12:18;4.57;;;3.20;;
83121;SDS011;73002;47.238;9.006;2024-03-07T04:14:47;3.83;;;3.10;;
83121;SDS011;73002;47.238;9.006;2024-03-07T04:17:12;5.03;;;3.42;;
83121;SDS011;73002;47.238;9.006;2024-03-07T04:19:41;5.30;;;3.58;;
83121;SDS011;73002;47.238;9.006;2024-03-07T04:24:43;6.07;;;4.00;;
83121;SDS011;73002;47.238;9.006;2024-03-07T04:27:08;5.40;;;3.80;;
83121;SDS011;73002;47.238;9.006;2024-03-07T04:29:36;6.30;;;4.20;;
83121;SDS011;73002;47.238;9.006;2024-03-07T04:32:02;6.05;;;4.00;;
83121;SDS011;73002;47.238;9.006;2024-03-07T04:34:29;6.22;;;4.00;;
83121;SDS011;73002;47.238;9.006;2024-03-07T04:36:58;5.03;;;3.17;;
83121;SDS011;73002;47.238;9.006;2024-03-07T04:39:25;5.20;;;3.35;;
83121;SDS011;73002;47.238;9.006;2024-03-07T04:42:00;4.80;;;3.35;;
83121;SDS011;73002;47.238;9.006;2024-03-07T04:44:29;4.72;;;3.20;;
83121;SDS011;73002;47.238;9.006;2024-03-07T04:52:05;4.68;;;3.03;;
83121;SDS011;73002;47.238;9.006;2024-03-07T04:57:06;3.95;;;2.60;;
83121;SDS011;73002;47.238;9.006;2024-03-07T04:59:36;3.67;;;2.57;;
83121;SDS011;73002;47.238;9.006;2024-03-07T05:02:01;3.50;;;2.42;;
83121;SDS011;73002;47.238;9.006;2024-03-07T05:04:27;2.97;;;1.95;;
83121;SDS011;73002;47.238;9.006;2024-03-07T05:15:41;3.20;;;2.20;;
83121;SDS011;73002;47.238;9.006;2024-03-07T05:18:10;4.47;;;2.67;;
83121;SDS011;73002;47.238;9.006;2024-03-07T05:20:37;3.47;;;2.20;;
83121;SDS011;73002;47.238;9.006;2024-03-07T05:23:06;3.67;;;2.47;;
83121;SDS011;73002;47.238;9.006;2024-03-07T05:35:52;4.88;;;2.63;;
83121;SDS011;73002;47.238;9.006;2024-03-07T05:51:13;4.28;;;2.67;;
83121;SDS011;73002;47.238;9.006;2024-03-07T06:19:55;4.97;;;3.38;;
83121;SDS011;73002;47.238;9.006;2024-03-07T06:22:21;3.83;;;2.70;;
83121;SDS011;73002;47.238;9.006;2024-03-07T06:24:47;5.10;;;3.30;;
83121;SDS011;73002;47.238;9.006;2024-03-07T06:27:13;4.90;;;3.80;;
83121;SDS011;73002;47.238;9.006;2024-03-07T06:29:51;6.32;;;4.25;;
83121;SDS011;73002;47.238;9.006;2024-03-07T09:42:25;5.60;;;4.00;;
83121;SDS011;73002;47.238;9.006;2024-03-07T09:44:55;5.22;;;3.97;;
83121;SDS011;73002;47.238;9.006;2024-03-07T09:47:23;5.97;;;4.10;;
83121;SDS011;73002;47.238;9.006;2024-03-07T18:08:39;13.25;;;8.75;;
83121;SDS011;73002;47.238;9.006;2024-03-07T18:11:06;14.00;;;8.70;;
83121;SDS011;73002;47.238;9.006;2024-03-07T18:13:35;13.88;;;8.50;;
83121;SDS011;73002;47.238;9.006;2024-03-07T18:16:04;13.43;;;9.05;;
83121;SDS011;73002;47.238;9.006;2024-03-07T18:18:32;13.98;;;8.77;;
